Latest Weather Observations for Jacup

IDW60801

Issued at 8:35 pm WST Wednesday 26 November 2014 (issued every 30 minutes, with the page automatically refreshed every 10 minutes)

About weather observations | Map of weather stations | Latest weather observations for WA | Other Formats
Station Details ID: 010905 Name: JACUP Lat: -33.89 Lon: 119.11 Height: 305.0 m
Data from the previous 72 hours. | See also: Recent months at Jacup
Date/Time
WST
Temp
°C
App
Temp
°C
Dew
Point
Rel
Hum
%
Delta-T
°C
Wind Press
QNH
hPa
Press
MSL
hPa
Rain
since 9 am
mm
Dir
 
Spd
km/h
Gust
km/h
Spd
kts
Gust
kts
26/08:30pm 16.7 13.5 14.2 85 1.4 E 24 33 13 18 1014.9 1014.2 0.0
26/08:00pm 16.8 13.5 14.1 84 1.6 E 24 33 13 18 1014.8 1014.0 0.0
26/07:30pm 17.2 13.1 13.9 81 1.9 E 28 35 15 19 1014.6 1013.8 0.0
26/07:09pm 17.7 13.1 13.6 77 2.4 E 30 48 16 26 1014.4 1013.6 0.0
26/07:00pm 17.9 13.0 13.6 76 2.5 E 32 48 17 26 1014.4 1013.6 0.0
26/06:30pm 18.7 13.6 13.6 72 2.9 E 33 46 18 25 1014.3 1013.5 0.0
26/06:00pm 20.0 14.4 13.2 65 3.9 ESE 35 46 19 25 1014.2 1013.4 0.0
26/05:30pm 21.6 16.0 13.2 59 4.9 E 35 54 19 29 1014.1 1013.3 0.0
26/05:00pm 21.9 16.2 13.0 57 5.2 E 35 48 19 26 1013.9 1013.2 0.0
26/04:30pm 23.0 17.2 12.6 52 6.0 E 35 46 19 25 1013.8 1013.1 0.0
26/04:05pm 24.8 19.5 12.4 46 7.2 E 32 50 17 27 1013.9 1013.2 0.0
26/04:00pm 24.9 19.4 12.5 46 7.2 ESE 33 50 18 27 1013.9 1013.2 0.0
26/03:30pm 25.7 19.8 12.5 44 7.7 E 35 44 19 24 1014.2 1013.4 0.0
26/03:00pm 26.9 21.7 12.9 42 8.3 ESE 32 44 17 24 1014.5 1013.7 0.0
26/02:30pm 26.2 20.7 12.6 43 8.0 E 33 48 18 26 1014.9 1014.2 0.0
26/02:00pm 27.5 22.1 12.3 39 8.9 E 32 43 17 23 1015.0 1014.3 0.0
26/01:30pm 27.1 22.1 12.3 39 8.7 ESE 30 44 16 24 1015.2 1014.5 0.0
26/01:00pm 27.5 22.7 11.5 37 9.3 E 28 39 15 21 1015.7 1015.0 0.0
26/12:30pm 27.8 21.9 10.5 34 9.9 E 32 50 17 27 1016.1 1015.4 0.0
26/12:20pm 28.3 22.5 8.1 28 11.1 ENE 28 46 15 25 1016.3 1015.6 0.0
26/12:00pm 27.4 21.4 8.8 31 10.3 E 30 39 16 21 1016.5 1015.8 0.0
26/11:30am 25.9 20.3 8.8 34 9.4 ENE 28 39 15 21 1017.1 1016.4 0.0
26/11:00am 25.8 20.2 8.8 34 9.3 ENE 28 59 15 32 1017.7 1017.0 0.0
26/10:50am 25.6 19.8 8.1 33 9.5 E 28 46 15 25 1018.0 1017.3 0.0
26/10:30am 25.2 20.5 9.1 36 8.9 ENE 24 41 13 22 1018.4 1017.7 0.0
26/10:00am 24.0 19.6 8.8 38 8.3 NE 22 33 12 18 1019.0 1018.3 0.0
26/09:30am 23.1 18.4 9.1 41 7.6 ENE 24 35 13 19 1019.4 1018.7 0.0
26/09:00am 21.5 16.8 9.1 45 6.7 ENE 24 35 13 19 1019.8 1019.1 0.0
26/08:30am 20.6 15.7 8.6 46 6.4 ENE 24 35 13 19 1019.7 1019.0 0.0
26/08:00am 19.2 13.5 8.5 50 5.6 E 28 35 15 19 1019.9 1019.2 0.0
26/07:30am 17.9 12.4 9.0 56 4.7 E 28 37 15 20 1019.8 1019.1 0.0
26/07:00am 16.0 11.8 9.7 66 3.3 E 22 30 12 16 1019.9 1019.2 0.0
26/06:30am 13.9 9.6 9.3 74 2.4 ENE 22 32 12 17 1020.1 1019.4 0.0
26/06:00am 12.4 7.8 9.6 83 1.4 E 24 32 13 17 1020.0 1019.3 0.0
26/05:30am 11.2 6.9 9.3 88 1.0 E 22 32 12 17 1019.8 1019.1 0.0
26/05:00am 10.6 6.6 9.0 90 0.8 E 20 26 11 14 1020.1 1019.4 0.0
26/04:30am 10.7 6.9 9.0 89 0.9 ENE 19 26 10 14 1020.0 1019.3 0.0
26/04:00am 11.1 6.7 9.0 87 1.1 E 22 30 12 16 1019.6 1018.9 0.0
26/03:30am 11.5 7.1 8.9 84 1.3 E 22 32 12 17 1019.3 1018.6 0.0
26/03:00am 11.9 7.4 8.7 81 1.6 E 22 30 12 16 1019.4 1018.7 0.0
26/02:30am 12.4 7.6 8.9 79 1.8 E 24 33 13 18 1019.4 1018.7 0.0
26/02:00am 13.0 8.1 9.8 81 1.7 E 26 37 14 20 1019.6 1018.9 0.0
26/01:30am 13.5 9.3 11.0 85 1.3 E 24 35 13 19 1019.9 1019.2 0.0
26/01:00am 14.3 9.4 11.3 82 1.6 E 28 39 15 21 1020.2 1019.5 0.0
26/12:30am 14.8 10.0 11.6 81 1.7 E 28 37 15 20 1020.6 1020.0 0.0
26/12:00am 14.5 10.5 11.8 84 1.5 E 24 35 13 19 1020.7 1020.1 0.0
 
Date/Time
WST
Temp
°C
App
Temp
°C
Dew
Point
Rel
Hum
%
Delta-T
°C
Wind Press
QNH
hPa
Press
MSL
hPa
Rain
since 9 am
mm
Dir
 
Spd
km/h
Gust
km/h
Spd
kts
Gust
kts
25/11:30pm 14.4 10.8 11.9 85 1.4 E 22 30 12 16 1020.9 1020.2 0.0
25/11:00pm 13.9 10.6 11.6 86 1.2 E 20 28 11 15 1021.3 1020.6 0.0
25/10:30pm 13.9 10.6 11.6 86 1.2 E 20 30 11 16 1021.6 1020.9 0.0
25/10:00pm 14.2 10.5 11.5 84 1.5 E 22 33 12 18 1021.5 1020.8 0.0
25/09:30pm 14.3 10.2 11.5 83 1.5 E 24 39 13 21 1021.4 1020.7 0.0
25/09:00pm 14.5 10.4 11.5 82 1.6 E 24 33 13 18 1021.3 1020.6 0.0
25/08:30pm 14.4 10.3 11.6 83 1.5 ESE 24 32 13 17 1021.2 1020.5 0.0
25/08:00pm 14.2 10.5 11.4 83 1.5 ESE 22 32 12 17 1021.3 1020.6 0.0
25/07:30pm 14.5 10.0 11.3 81 1.7 ESE 26 37 14 20 1021.3 1020.6 0.0
25/07:00pm 15.1 9.8 11.3 78 2.1 ESE 30 43 16 23 1021.2 1020.5 0.0
25/06:30pm 15.9 10.4 10.4 70 2.9 ESE 30 43 16 23 1021.1 1020.4 0.0
25/06:00pm 17.1 11.2 10.5 65 3.6 ESE 32 44 17 24 1021.0 1020.3 0.0
25/05:30pm 18.2 13.0 10.1 59 4.4 ESE 28 41 15 22 1020.6 1020.0 0.0
25/05:00pm 19.5 13.6 10.5 56 4.9 SE 32 43 17 23 1020.4 1019.7 0.0
25/04:30pm 20.3 14.4 10.4 53 5.4 ESE 32 43 17 23 1020.3 1019.6 0.0
25/04:00pm 21.4 15.9 10.6 50 6.0 ESE 30 39 16 21 1020.3 1019.6 0.0
25/03:30pm 21.6 16.0 10.1 48 6.3 ESE 30 41 16 22 1020.2 1019.5 0.0
25/03:00pm 22.6 17.4 10.1 45 6.9 ESE 28 39 15 21 1020.4 1019.7 0.0
25/02:30pm 23.5 18.1 9.5 41 7.7 ESE 28 35 15 19 1020.4 1019.7 0.0
25/02:00pm 23.9 19.2 9.1 39 8.1 ESE 24 35 13 19 1020.6 1020.0 0.0
25/01:30pm 24.4 19.6 8.8 37 8.5 ESE 24 33 13 18 1020.7 1020.1 0.0
25/01:00pm 24.1 20.5 6.8 33 9.1 E 15 24 8 13 1021.0 1020.3 0.0
25/12:30pm 24.3 21.1 7.0 33 9.1 ESE 13 24 7 13 1021.4 1020.7 0.0
25/12:00pm 24.0 20.6 7.6 35 8.7 E 15 24 8 13 1021.7 1021.0 0.0
25/11:30am 23.6 20.5 7.3 35 8.6 ESE 13 20 7 11 1021.9 1021.2 0.0
25/11:00am 22.3 18.3 6.5 36 8.1 E 17 24 9 13 1022.3 1021.6 0.0
25/10:30am 21.2 17.3 7.1 40 7.3 E 17 28 9 15 1022.6 1021.9 0.0
25/10:00am 20.4 16.6 7.4 43 6.7 E 17 24 9 13 1022.9 1022.2 0.0
25/09:30am 19.2 15.0 7.3 46 6.1 E 19 28 10 15 1023.3 1022.7 0.0
25/09:00am 17.7 13.3 7.2 50 5.3 E 20 32 11 17 1023.5 1022.9 0.0
25/08:30am 16.5 11.7 7.2 54 4.7 ENE 22 32 12 17 1023.7 1023.1 0.0
25/08:00am 15.3 10.9 7.3 59 4.0 ENE 20 32 11 17 1023.9 1023.3 0.0
25/07:30am 14.4 10.1 7.7 64 3.4 ENE 20 30 11 16 1023.9 1023.3 0.0
25/07:00am 13.2 8.8 7.4 68 2.9 ENE 20 26 11 14 1023.8 1023.2 0.0
25/06:30am 12.5 8.8 7.8 73 2.3 ENE 17 26 9 14 1023.6 1023.0 0.0
25/06:00am 10.8 8.6 8.0 83 1.4 E 9 17 5 9 1023.4 1022.8 0.0
25/05:30am 8.8 6.4 6.8 87 0.9 E 9 11 5 6 1023.6 1023.0 0.0
25/05:00am 8.7 6.2 6.5 86 1.0 ENE 9 11 5 6 1023.4 1022.8 0.0
25/04:30am 9.0 5.8 7.0 87 1.0 ENE 13 15 7 8 1022.9 1022.2 0.0
25/04:00am 8.8 5.2 6.6 86 1.0 NE 15 19 8 10 1022.7 1022.0 0.0
25/03:30am 8.8 5.5 6.6 86 1.0 ENE 13 15 7 8 1022.7 1022.0 0.0
25/03:00am 8.6 5.3 6.6 87 0.9 ENE 13 15 7 8 1022.7 1022.0 0.0
25/02:30am 8.4 5.5 6.5 88 0.9 ENE 11 13 6 7 1022.7 1022.0 0.0
25/02:00am 8.3 5.4 6.6 89 0.8 ENE 11 13 6 7 1022.7 1022.0 0.0
25/01:30am 8.3 5.4 6.6 89 0.8 ENE 11 13 6 7 1023.0 1022.3 0.0
25/01:00am 8.4 5.9 6.5 88 0.9 E 9 13 5 7 1023.3 1022.7 0.0
25/12:30am 8.2 6.0 6.3 88 0.9 ENE 7 9 4 5 1023.3 1022.7 0.0
25/12:00am 8.3 6.3 6.1 86 1.0 E 6 7 3 4 1023.7 1023.1 0.0
 
Date/Time
WST
Temp
°C
App
Temp
°C
Dew
Point
Rel
Hum
%
Delta-T
°C
Wind Press
QNH
hPa
Press
MSL
hPa
Rain
since 9 am
mm
Dir
 
Spd
km/h
Gust
km/h
Spd
kts
Gust
kts
24/11:30pm 8.5 5.9 6.3 86 1.0 E 9 9 5 5 1023.8 1023.2 0.0
24/11:00pm 8.4 5.8 5.9 84 1.2 E 9 11 5 6 1023.9 1023.3 0.0
24/10:30pm 9.3 6.8 6.4 82 1.4 E 9 13 5 7 1024.1 1023.5 0.0
24/10:00pm 10.5 7.3 7.0 79 1.7 ESE 13 17 7 9 1024.2 1023.6 0.0
24/09:30pm 10.7 7.2 7.0 78 1.8 ESE 15 19 8 10 1024.2 1023.6 0.0
24/09:00pm 10.9 7.7 6.8 76 2.0 ESE 13 17 7 9 1024.4 1023.7 0.0
24/08:30pm 11.5 8.3 6.8 73 2.3 ESE 13 19 7 10 1024.2 1023.6 0.0
24/08:00pm 12.1 8.1 6.8 70 2.6 ESE 17 24 9 13 1023.9 1023.3 0.0
24/07:30pm 12.6 8.0 6.6 67 2.9 ESE 20 26 11 14 1023.6 1023.0 0.0
24/07:00pm 13.1 8.6 6.9 66 3.0 ESE 20 28 11 15 1023.4 1022.8 0.0
24/06:30pm 14.1 9.3 7.2 63 3.4 ESE 22 33 12 18 1023.1 1022.4 0.0
24/06:00pm 15.5 10.4 7.5 59 4.0 ESE 24 33 13 18 1022.8 1022.1 0.0
24/05:30pm 16.7 11.6 7.6 55 4.6 ESE 24 33 13 18 1022.3 1021.6 0.0
24/05:00pm 17.8 12.7 7.8 52 5.1 ESE 24 35 13 19 1022.0 1021.3 0.0
24/04:30pm 18.9 14.2 7.7 48 5.8 SE 22 30 12 16 1021.7 1021.0 0.0
24/04:00pm 19.5 15.7 7.6 46 6.2 SE 17 26 9 14 1021.8 1021.1 0.0
24/03:30pm 19.3 14.1 7.1 45 6.3 ESE 24 33 13 18 1021.8 1021.1 0.0
24/03:00pm 19.0 14.5 6.8 45 6.2 ESE 20 32 11 17 1021.9 1021.2 0.0
24/02:30pm 20.0 16.1 7.1 43 6.7 SE 17 28 9 15 1021.8 1021.1 0.0
24/02:00pm 20.6 15.6 6.5 40 7.2 SE 22 39 12 21 1021.9 1021.2 0.0
24/01:30pm 20.1 16.0 6.1 40 7.1 E 17 24 9 13 1022.0 1021.3 0.0
24/01:00pm 20.2 15.5 6.2 40 7.1 ESE 20 32 11 17 1022.1 1021.4 0.0
24/12:30pm 19.7 16.2 3.4 34 7.8 SE 11 28 6 15 1022.3 1021.6 0.0
24/12:00pm 19.3 15.5 3.9 36 7.4 ESE 13 22 7 12 1022.7 1022.0 0.0
24/11:30am 18.2 14.5 4.7 41 6.6 SSE 13 28 7 15 1023.0 1022.3 0.0
24/11:00am 17.2 14.2 4.2 42 6.2 S 9 20 5 11 1023.4 1022.8 0.0
24/10:30am 17.2 13.7 5.5 46 5.7 S 13 22 7 12 1023.6 1023.0 0.0
24/10:00am 16.1 13.0 5.7 50 5.1 ESE 11 22 6 12 1023.7 1023.1 0.0
24/09:30am 15.7 12.2 5.3 50 5.0 ESE 13 20 7 11 1023.9 1023.3 0.0
24/09:00am 15.5 11.2 5.4 51 4.9 ESE 17 24 9 13 1023.9 1023.3 0.0
24/08:30am 15.4 11.5 5.3 51 4.9 SE 15 20 8 11 1023.9 1023.3 0.0
24/08:00am 15.3 11.5 5.8 53 4.6 SE 15 22 8 12 1023.8 1023.2 0.0
24/07:30am 14.2 10.6 5.0 54 4.4 S 13 20 7 11 1023.6 1023.0 0.0
24/07:00am 13.3 10.6 5.5 59 3.7 S 9 15 5 8 1023.5 1022.9 0.0
24/06:30am 11.7 9.5 6.2 69 2.6 S 7 11 4 6 1023.2 1022.5 0.0
24/06:00am 9.9 7.8 5.9 76 1.9 W 6 7 3 4 1022.9 1022.2 0.0
24/05:30am 7.7 5.6 5.7 87 0.9 W 6 9 3 5 1022.7 1022.0 0.0
24/05:00am 5.4 4.1 3.9 90 0.6 CALM 0 0 0 0 1022.3 1021.6 0.0
24/04:30am 4.7 2.1 3.0 89 0.7 SW 6 9 3 5 1022.1 1021.4 0.0
24/04:00am 4.6 1.3 2.6 87 0.8 SW 9 11 5 6 1021.7 1021.0 0.0
24/03:30am 5.2 2.1 3.4 88 0.8 SSW 9 11 5 6 1021.5 1020.8 0.0
24/03:00am 5.0 2.1 2.7 85 1.0 SW 7 9 4 5 1021.5 1020.8 0.0
24/02:30am 6.0 2.9 3.7 85 1.0 SSW 9 9 5 5 1021.4 1020.7 0.0
24/02:00am 6.5 2.8 4.5 87 0.9 SSW 13 15 7 8 1021.3 1020.6 0.0
24/01:30am 5.7 2.7 3.9 88 0.8 SW 9 11 5 6 1021.4 1020.7 0.0
24/01:00am 5.4 2.6 3.3 86 0.9 SSW 7 11 4 6 1021.4 1020.7 0.0
24/12:30am 6.6 3.9 3.9 83 1.2 SSW 7 11 4 6 1021.3 1020.6 0.0
24/12:00am 7.3 4.4 4.8 84 1.1 SSW 9 13 5 7 1021.4 1020.7 0.0
 
Date/Time
WST
Temp
°C
App
Temp
°C
Dew
Point
Rel
Hum
%
Delta-T
°C
Wind Press
QNH
hPa
Press
MSL
hPa
Rain
since 9 am
mm
Dir
 
Spd
km/h
Gust
km/h
Spd
kts
Gust
kts
23/11:30pm 7.4 4.5 4.4 81 1.3 SSW 9 13 5 7 1021.4 1020.7 0.0
23/11:00pm 8.4 5.9 4.8 78 1.6 SSW 7 15 4 8 1021.4 1020.7 0.0
23/10:30pm 8.7 5.1 4.9 77 1.7 SSW 13 19 7 10 1021.3 1020.6 0.0
23/10:00pm 8.9 6.0 4.9 76 1.8 S 9 15 5 8 1021.3 1020.6 0.0
23/09:30pm 9.4 6.2 5.2 75 1.9 S 11 15 6 8 1021.2 1020.5 0.0
23/09:00pm 10.3 7.2 5.7 73 2.1 S 11 17 6 9 1021.0 1020.3 0.0

Other Formats:

Comma delimited format used in spreadsheet applications
http://www.bom.gov.au/fwo/IDW60801/IDW60801.95636.axf

JavaScript Object Notation format (JSON) in row-major order
http://www.bom.gov.au/fwo/IDW60801/IDW60801.95636.json